Time;durP1;ratioP1;P1;durP2;ratioP2;P2;SDS_P1;SDS_P2;PMS_P1;PMS_P2;Temp;Humidity;BMP_temperature;BMP_pressure;BME280_temperature;BME280_humidity;BME280_pressure;Samples;Min_cycle;Max_cycle;Signal;HPM_P1;HPM_P2
2022/12/28 00:01:31;;;;;;;9.53;3.15;;;;;;;5.16;64.06;100781.31;1725532;82;21749;-68
2022/12/28 00:04:01;;;;;;;;;;;;;;;5.15;64.05;100773.09;1745137;81;21014;-69
2022/12/28 00:06:31;;;;;;;7.35;2.65;;;;;;;5.16;63.94;100774.70;1746223;81;20141;-67
2022/12/28 00:08:57;;;;;;;7.20;2.90;;;;;;;5.14;63.92;100766.17;1720439;81;21047;-68
2022/12/28 00:11:26;;;;;;;7.42;2.72;;;;;;;5.10;63.89;100787.47;1746869;81;21004;-67
2022/12/28 00:13:53;;;;;;;8.33;2.72;;;;;;;5.10;63.85;100779.04;1753244;81;21832;-67
2022/12/28 00:16:31;;;;;;;7.92;2.70;;;;;;;5.12;63.79;100801.31;1747297;82;21474;-67
2022/12/28 00:19:00;;;;;;;7.37;2.90;;;;;;;5.08;63.77;100782.92;1747442;82;21517;-67
2022/12/28 00:21:26;;;;;;;6.83;3.12;;;;;;;5.08;63.83;100800.94;1745130;82;21517;-68
2022/12/28 00:23:56;;;;;;;9.90;3.30;;;;;;;5.05;63.71;100787.32;1738199;81;21596;-67
2022/12/28 00:26:23;;;;;;;7.58;2.98;;;;;;;5.06;63.68;100783.12;1718830;82;21818;-67
2022/12/28 00:28:50;;;;;;;7.37;3.30;;;;;;;5.04;63.61;100785.19;1723526;82;21022;-67
2022/12/28 00:31:17;;;;;;;9.73;3.42;;;;;;;5.07;63.62;100781.31;1723434;82;21488;-68
2022/12/28 00:33:45;;;;;;;8.58;3.22;;;;;;;4.69;64.39;100798.02;1720578;81;21562;-67
2022/12/28 00:36:13;;;;;;;10.70;2.72;;;;;;;4.59;64.80;100783.93;1733373;81;21004;-68
2022/12/28 00:38:41;;;;;;;8.60;3.30;;;;;;;4.56;65.12;100804.19;1737589;81;21180;-68
2022/12/28 00:41:08;;;;;;;9.53;2.85;;;;;;;4.52;65.36;100795.58;1731643;81;21024;-68
2022/12/28 00:43:36;;;;;;;9.38;3.00;;;;;;;4.93;64.56;100803.87;1735803;82;21541;-67
2022/12/28 00:46:03;;;;;;;10.53;2.92;;;;;;;5.00;64.32;100785.81;1730555;80;21141;-69
2022/12/28 00:48:30;;;;;;;6.70;2.85;;;;;;;5.03;64.25;100803.41;1739471;80;21543;-68
2022/12/28 00:51:06;;;;;;;8.45;3.00;;;;;;;4.99;64.22;100792.95;1700835;83;21130;-68
2022/12/28 00:53:33;;;;;;;9.48;3.42;;;;;;;4.97;64.27;100787.56;1718772;80;21075;-69
2022/12/28 00:56:16;;;;;;;7.87;3.40;;;;;;;4.93;64.33;100801.22;1724600;82;21197;-68
2022/12/28 00:58:43;;;;;;;6.65;3.00;;;;;;;4.89;64.49;100811.94;1743897;81;21929;-68
2022/12/28 01:01:19;;;;;;;9.93;3.60;;;;;;;4.87;64.55;100808.72;1743705;82;21037;-66
2022/12/28 01:03:46;;;;;;;6.67;3.42;;;;;;;4.80;64.77;100809.76;1725539;81;21231;-68
2022/12/28 01:06:16;;;;;;;8.33;3.40;;;;;;;4.81;64.86;100812.73;1757271;81;21031;-67
2022/12/28 01:08:43;;;;;;;8.80;3.60;;;;;;;4.75;65.04;100820.99;1707984;82;21047;-68
2022/12/28 01:11:23;;;;;;;6.97;3.10;;;;;;;4.75;65.14;100813.57;1701129;82;21004;-67
2022/12/28 01:13:51;;;;;;;8.73;3.27;;;;;;;4.81;65.16;100819.34;1706130;81;21062;-67
2022/12/28 01:16:27;;;;;;;6.65;2.80;;;;;;;4.74;65.39;100813.25;1751342;80;21192;-67
2022/12/28 01:18:57;;;;;;;7.33;2.87;;;;;;;4.77;65.41;100814.98;1743424;81;20987;-67
2022/12/28 01:21:26;;;;;;;9.68;3.45;;;;;;;4.80;65.39;100822.99;1747239;82;21043;-67
2022/12/28 01:23:57;;;;;;;11.15;4.03;;;;;;;4.78;65.43;100816.61;1735331;81;21562;-67
2022/12/28 01:26:25;;;;;;;7.45;3.25;;;;;;;4.80;65.49;100811.09;1722893;82;21047;-67
2022/12/28 01:28:51;;;;;;;8.93;3.00;;;;;;;4.78;65.52;100824.55;1717573;83;21071;-68
2022/12/28 01:31:19;;;;;;;7.72;3.30;;;;;;;4.81;65.60;100826.77;1739996;81;20964;-68
2022/12/28 01:33:46;;;;;;;7.67;3.15;;;;;;;4.80;65.65;100814.53;1744547;81;21102;-68
2022/12/28 01:36:24;;;;;;;7.92;2.92;;;;;;;4.79;65.69;100819.54;1734785;81;21014;-67
2022/12/28 01:38:54;;;;;;;8.13;3.20;;;;;;;4.81;65.78;100827.28;1722469;81;21070;-67
2022/12/28 01:41:21;;;;;;;7.40;3.30;;;;;;;4.82;65.78;100813.82;1727058;81;21733;-67
2022/12/28 01:43:56;;;;;;;5.80;2.70;;;;;;;4.82;65.81;100809.05;1730625;81;21003;-67
2022/12/28 01:46:48;;;;;;;9.90;3.08;;;;;;;4.84;65.83;100821.56;1725040;81;20979;-67
2022/12/28 01:49:19;;;;;;;8.55;3.10;;;;;;;4.86;65.83;100808.40;1725762;81;21015;-68
2022/12/28 01:52:09;;;;;;;8.43;3.22;;;;;;;4.89;65.85;100811.94;1731908;82;21086;-67
2022/12/28 01:54:50;;;;;;;7.33;3.40;;;;;;;4.89;65.88;100813.27;1708705;82;21139;-68
2022/12/28 01:57:16;;;;;;;6.90;3.33;;;;;;;4.91;65.87;100818.37;1714695;82;21550;-68
2022/12/28 01:59:48;;;;;;;8.08;3.60;;;;;;;4.90;65.88;100812.27;1730914;81;21153;-68
2022/12/28 02:02:15;;;;;;;8.53;3.90;;;;;;;4.92;65.89;100819.46;1742132;81;21034;-68
2022/12/28 02:04:44;;;;;;;10.48;3.67;;;;;;;4.90;65.96;100818.88;1720226;82;21887;-68
2022/12/28 02:07:13;;;;;;;9.83;4.25;;;;;;;4.91;65.98;100809.91;1746749;82;21519;-68
2022/12/28 02:09:42;;;;;;;8.68;3.67;;;;;;;4.94;66.04;100815.30;1746726;81;21023;-68
2022/12/28 02:12:13;;;;;;;9.05;3.72;;;;;;;4.96;66.04;100820.36;1725280;82;21058;-68
2022/12/28 02:14:41;;;;;;;12.35;4.05;;;;;;;4.97;66.04;100825.95;1723989;81;21434;-69
2022/12/28 02:17:09;;;;;;;9.38;3.75;;;;;;;5.02;66.05;100820.84;1735854;81;21549;-68
2022/12/28 02:19:45;;;;;;;9.45;3.80;;;;;;;5.03;66.02;100822.45;1751606;81;21486;-68
2022/12/28 02:22:34;;;;;;;13.03;5.03;;;;;;;5.05;66.01;100825.19;1712998;82;20943;-68
2022/12/28 02:25:24;;;;;;;10.25;4.03;;;;;;;5.08;65.96;100831.38;1699496;84;21110;-68
2022/12/28 02:28:30;;;;;;;8.35;3.77;;;;;;;5.09;65.91;100824.25;1717593;83;20996;-68
2022/12/28 02:31:02;;;;;;;8.10;4.42;;;;;;;5.09;65.90;100820.28;1728025;81;21071;-68
2022/12/28 02:33:37;;;;;;;8.00;4.35;;;;;;;5.02;65.94;100826.94;1717470;83;21650;-68
2022/12/28 02:36:27;;;;;;;8.95;4.08;;;;;;;5.01;65.98;100822.67;1717218;83;20996;-68
2022/12/28 02:39:02;;;;;;;10.70;5.05;;;;;;;5.02;66.00;100830.10;1713236;81;21008;-69
2022/12/28 02:41:31;;;;;;;8.65;4.17;;;;;;;5.02;66.01;100829.59;1735179;81;21516;-68
2022/12/28 02:43:59;;;;;;;8.73;4.12;;;;;;;5.09;65.97;100832.19;1753496;81;21079;-68
2022/12/28 02:52:33;;;;;;;9.35;4.17;;;;;;;4.90;66.30;100851.13;1747615;82;21024;-68
2022/12/28 02:58:18;;;;;;;9.93;4.35;;;;;;;4.62;67.46;100853.62;1739298;81;20988;-67
2022/12/28 03:01:06;;;;;;;9.10;4.25;;;;;;;4.60;67.66;100846.91;1750990;81;21264;-67
2022/12/28 03:03:59;;;;;;;8.98;4.62;;;;;;;4.62;67.81;100850.97;1762829;81;21094;-68
2022/12/28 03:09:30;;;;;;;11.88;4.47;;;;;;;4.59;67.99;100846.61;1698259;84;21061;-68
2022/12/28 03:12:22;;;;;;;10.28;4.45;;;;;;;4.64;67.99;100853.39;1716314;83;21047;-69
2022/12/28 03:14:52;;;;;;;6.78;3.90;;;;;;;4.65;68.02;100860.33;1715027;83;21156;-68
2022/12/28 03:31:18;;;;;;;6.97;4.05;;;;;;;5.19;66.22;100868.27;1746101;82;21106;-67
2022/12/28 03:34:05;;;;;;;10.72;4.35;;;;;;;5.21;66.16;100880.00;1744131;81;21119;-68
2022/12/28 03:36:27;;;;;;;8.65;4.17;;;;;;;5.18;66.14;100867.98;1715811;83;20944;-67
2022/12/28 03:39:23;;;;;;;9.23;4.60;;;;;;;5.22;66.10;100886.91;1717727;83;21059;-68
2022/12/28 03:44:49;;;;;;;11.15;4.95;;;;;;;5.24;66.01;100881.70;1723344;82;21058;-68
2022/12/28 03:47:16;;;;;;;11.70;4.45;;;;;;;5.23;66.00;100873.47;1717743;83;21170;-67
2022/12/28 03:49:45;;;;;;;9.48;5.12;;;;;;;5.26;65.97;100869.04;1693409;83;21118;-68
2022/12/28 03:52:12;;;;;;;10.23;4.87;;;;;;;5.29;65.92;100871.78;1730930;81;21471;-69
2022/12/28 03:54:40;;;;;;;9.50;4.40;;;;;;;5.27;65.83;100881.27;1744374;81;21293;-69
2022/12/28 03:57:21;;;;;;;8.33;4.40;;;;;;;5.30;65.82;100875.55;1725566;82;21062;-68
2022/12/28 04:00:01;;;;;;;8.45;4.20;;;;;;;5.29;65.83;100879.72;1717713;81;21000;-68
2022/12/28 04:02:29;;;;;;;9.80;3.87;;;;;;;5.28;65.82;100868.84;1740026;82;21012;-69
2022/12/28 04:04:56;;;;;;;8.63;4.12;;;;;;;5.28;65.78;100878.91;1715639;83;21117;-69
2022/12/28 04:07:24;;;;;;;8.35;4.20;;;;;;;5.27;65.76;100875.98;1717431;83;21148;-69
2022/12/28 04:09:51;;;;;;;8.43;4.50;;;;;;;5.29;65.76;100883.70;1719281;82;21107;-69
2022/12/28 04:12:18;;;;;;;8.95;4.40;;;;;;;5.32;65.68;100893.34;1735350;81;22378;-69
2022/12/28 04:14:49;;;;;;;9.85;4.20;;;;;;;5.33;65.57;100888.37;1759544;81;20964;-69
2022/12/28 04:17:16;;;;;;;8.43;4.10;;;;;;;5.29;65.59;100885.83;1723757;82;20976;-69
2022/12/28 04:19:44;;;;;;;7.70;4.42;;;;;;;5.23;65.62;100893.81;1697288;82;21128;-69
2022/12/28 04:22:10;;;;;;;8.90;4.37;;;;;;;5.19;65.69;100893.43;1717362;83;21043;-69
2022/12/28 04:24:37;;;;;;;8.90;4.50;;;;;;;5.16;65.75;100893.34;1717374;83;21019;-69
2022/12/28 04:27:04;;;;;;;9.23;4.70;;;;;;;5.12;65.79;100891.34;1710323;83;21056;-69
2022/12/28 04:29:31;;;;;;;8.73;4.87;;;;;;;5.06;65.83;100902.26;1738613;82;21037;-68
2022/12/28 04:31:59;;;;;;;9.18;4.25;;;;;;;5.06;65.93;100903.58;1745522;81;21248;-70
2022/12/28 04:34:26;;;;;;;9.33;4.45;;;;;;;5.06;65.97;100902.77;1747221;82;21616;-69
2022/12/28 04:36:55;;;;;;;8.93;4.42;;;;;;;5.06;66.04;100909.39;1711178;82;21035;-69
2022/12/28 04:39:22;;;;;;;10.68;4.33;;;;;;;5.09;66.04;100906.32;1722936;82;21649;-69
2022/12/28 04:41:48;;;;;;;9.58;4.40;;;;;;;5.16;66.04;100907.91;1745043;82;20949;-69
2022/12/28 04:44:17;;;;;;;8.20;4.25;;;;;;;5.19;65.88;100919.91;1746271;82;20988;-69
2022/12/28 04:46:43;;;;;;;8.05;4.50;;;;;;;5.24;65.83;100917.97;1743798;82;21005;-69
2022/12/28 04:49:10;;;;;;;8.30;4.50;;;;;;;5.29;65.73;100922.10;1728862;81;21529;-69
2022/12/28 04:51:38;;;;;;;8.98;4.78;;;;;;;5.32;65.66;100920.35;1702583;82;21047;-69
2022/12/28 04:54:05;;;;;;;7.12;4.10;;;;;;;5.29;65.51;100922.91;1747342;82;21074;-69
2022/12/28 04:56:32;;;;;;;8.75;4.40;;;;;;;5.29;65.43;100925.55;1724823;81;21147;-68
2022/12/28 04:58:59;;;;;;;8.85;4.65;;;;;;;5.33;65.46;100928.09;1726527;81;21500;-69
2022/12/28 05:01:26;;;;;;;8.00;4.30;;;;;;;5.34;65.46;100935.02;1761372;80;20983;-69
2022/12/28 05:03:53;;;;;;;8.78;4.42;;;;;;;5.35;65.46;100928.68;1732299;82;21030;-70
2022/12/28 05:20:19;;;;;;;8.23;4.70;;;;;;;5.73;66.55;100945.05;1835546;77;22840;-68
2022/12/28 05:22:46;;;;;;;8.50;4.53;;;;;;;5.63;66.60;100950.02;1823337;78;21139;-67
2022/12/28 05:25:12;;;;;;;7.03;4.47;;;;;;;5.52;66.83;100959.97;1807961;78;21138;-67
2022/12/28 05:27:39;;;;;;;10.18;5.05;;;;;;;5.40;67.06;100954.55;1801404;78;21528;-68
2022/12/28 05:30:07;;;;;;;7.37;4.35;;;;;;;5.30;67.33;100948.39;1800158;79;20970;-68
2022/12/28 05:32:34;;;;;;;10.20;5.00;;;;;;;5.20;67.62;100952.02;1802548;78;21421;-69
2022/12/28 05:35:01;;;;;;;7.50;4.70;;;;;;;5.14;67.75;100949.69;1802618;78;20983;-68
2022/12/28 05:37:27;;;;;;;8.63;4.87;;;;;;;5.07;68.06;100946.27;1830247;78;21768;-68
2022/12/28 05:39:54;;;;;;;9.85;4.95;;;;;;;5.02;68.26;100950.04;1831056;78;20929;-68
2022/12/28 05:42:20;;;;;;;7.87;4.87;;;;;;;4.99;68.44;100961.05;1814894;78;20996;-69
2022/12/28 05:44:48;;;;;;;8.68;4.95;;;;;;;4.97;68.66;100962.27;1807949;78;20991;-68
2022/12/28 05:47:15;;;;;;;8.08;5.20;;;;;;;4.96;68.78;100971.25;1808227;78;20987;-68
2022/12/28 05:49:41;;;;;;;7.90;4.90;;;;;;;4.98;68.85;100966.56;1806746;78;21177;-69
2022/12/28 05:52:08;;;;;;;10.15;5.50;;;;;;;4.98;68.89;100978.48;1801878;78;21002;-70
2022/12/28 05:54:34;;;;;;;8.20;5.20;;;;;;;5.01;68.88;100981.52;1809622;78;21489;-69
2022/12/28 05:57:01;;;;;;;8.83;5.47;;;;;;;5.06;68.88;100974.26;1834763;78;21043;-69
2022/12/28 05:59:27;;;;;;;8.30;5.50;;;;;;;5.08;68.83;100982.81;1818958;78;21410;-68
2022/12/28 06:01:54;;;;;;;9.80;5.25;;;;;;;5.11;68.70;100986.37;1805132;78;21147;-69
2022/12/28 06:04:20;;;;;;;9.63;5.45;;;;;;;5.15;68.56;100994.19;1816996;78;20991;-68
2022/12/28 06:06:48;;;;;;;7.95;4.83;;;;;;;5.15;68.48;101001.61;1805345;78;21082;-68
2022/12/28 06:09:15;;;;;;;10.35;5.17;;;;;;;5.16;68.44;101007.72;1772323;78;21014;-68
2022/12/28 06:11:42;;;;;;;10.10;5.62;;;;;;;5.18;68.37;101015.77;1816456;78;21066;-69
2022/12/28 06:14:08;;;;;;;7.67;4.53;;;;;;;5.23;68.21;101015.64;1797034;78;21274;-68
2022/12/28 06:16:39;;;;;;;8.93;4.72;;;;;;;5.25;67.89;101010.44;1811650;78;20995;-69
2022/12/28 06:19:09;;;;;;;7.97;4.60;;;;;;;5.31;67.70;101008.27;1792128;80;21084;-69
2022/12/28 06:21:38;;;;;;;11.05;5.25;;;;;;;5.37;67.56;101019.87;1800707;78;21013;-71
2022/12/28 06:24:06;;;;;;;8.93;5.22;;;;;;;5.40;67.29;101034.02;1823713;78;21034;-68
2022/12/28 06:26:34;;;;;;;10.53;5.20;;;;;;;5.43;66.85;101026.14;1823959;78;21250;-69
2022/12/28 06:29:01;;;;;;;6.72;4.45;;;;;;;5.39;66.45;101017.29;1823698;78;21030;-70
2022/12/28 06:31:32;;;;;;;8.08;4.40;;;;;;;5.36;66.23;101015.09;1806149;78;21035;-70
2022/12/28 06:34:00;;;;;;;8.40;4.15;;;;;;;5.35;66.06;101036.48;1803649;78;21117;-70
2022/12/28 06:36:37;;;;;;;8.83;4.47;;;;;;;5.58;65.52;101040.74;1801219;77;21050;-69
2022/12/28 06:39:05;;;;;;;9.43;4.87;;;;;;;5.79;64.57;101042.77;1796614;78;21126;-69
2022/12/28 06:41:33;;;;;;;9.25;4.95;;;;;;;5.82;64.10;101043.18;1793184;78;21054;-69
2022/12/28 06:44:01;;;;;;;8.48;5.30;;;;;;;5.79;63.88;101044.93;1784564;80;21047;-69
2022/12/28 06:46:29;;;;;;;8.58;4.45;;;;;;;5.79;63.74;101044.93;1762764;78;21014;-68
2022/12/28 06:48:56;;;;;;;8.68;4.85;;;;;;;5.78;63.63;101044.61;1802011;78;21108;-68
2022/12/28 06:51:27;;;;;;;9.25;4.47;;;;;;;5.78;63.65;101055.73;1794931;78;21077;-68
2022/12/28 06:53:54;;;;;;;10.93;4.80;;;;;;;5.77;63.66;101054.92;1752733;81;21198;-67
2022/12/28 06:56:27;;;;;;;6.92;4.90;;;;;;;5.76;63.70;101052.47;1765574;81;21481;-69
2022/12/28 06:58:54;;;;;;;9.48;5.50;;;;;;;5.73;63.51;101064.84;1786459;79;21678;-69
2022/12/28 07:01:24;;;;;;;9.28;5.08;;;;;;;5.76;63.52;101067.87;1776108;79;21042;-69
2022/12/28 07:03:53;;;;;;;10.03;4.80;;;;;;;5.79;63.41;101072.77;1793634;78;21716;-69
2022/12/28 07:06:22;;;;;;;10.20;5.65;;;;;;;5.82;63.16;101087.41;1765471;80;20999;-68
2022/12/28 07:08:49;;;;;;;12.75;5.53;;;;;;;5.89;63.10;101074.95;1820642;78;21034;-68
2022/12/28 07:11:20;;;;;;;11.00;6.10;;;;;;;5.95;62.81;101087.87;1822782;78;20964;-69
2022/12/28 07:13:47;;;;;;;9.35;4.92;;;;;;;5.97;62.63;101085.32;1822799;78;21556;-70
2022/12/28 07:16:17;;;;;;;9.85;5.30;;;;;;;5.97;62.11;101085.84;1812216;78;21148;-70
2022/12/28 07:18:46;;;;;;;9.53;5.28;;;;;;;6.01;62.01;101089.68;1790358;79;20995;-69
2022/12/28 07:21:19;;;;;;;9.65;5.47;;;;;;;6.04;61.75;101099.34;1790311;79;20988;-70
2022/12/28 07:23:47;;;;;;;9.65;4.80;;;;;;;6.06;61.48;101093.84;1791393;78;21481;-69
2022/12/28 07:26:26;;;;;;;10.48;4.87;;;;;;;6.15;61.38;101093.05;1812905;78;21418;-68
2022/12/28 07:28:54;;;;;;;11.35;5.10;;;;;;;6.20;60.88;101089.26;1822730;78;21795;-68
2022/12/28 07:31:27;;;;;;;9.18;4.90;;;;;;;6.27;60.61;101084.72;1822566;78;21501;-69
2022/12/28 07:33:55;;;;;;;8.20;5.03;;;;;;;6.33;60.29;101097.93;1818970;78;21457;-68
2022/12/28 07:36:23;;;;;;;8.13;4.72;;;;;;;6.44;60.05;101087.65;1790484;79;21569;-68
2022/12/28 07:38:50;;;;;;;9.65;4.90;;;;;;;6.55;59.72;101079.80;1790359;79;20988;-69
2022/12/28 07:41:22;;;;;;;10.85;5.45;;;;;;;6.67;59.61;101086.53;1791510;78;22184;-69
2022/12/28 07:43:50;;;;;;;9.35;4.60;;;;;;;6.78;59.33;101084.50;1804512;78;21038;-69
2022/12/28 07:46:25;;;;;;;8.55;4.35;;;;;;;6.81;58.67;101086.72;1822823;78;21527;-69
2022/12/28 07:48:52;;;;;;;11.55;4.60;;;;;;;6.83;58.29;101094.98;1822583;78;21428;-70
2022/12/28 07:51:26;;;;;;;7.95;4.30;;;;;;;6.84;58.27;101090.76;1822496;78;20987;-70
2022/12/28 07:53:54;;;;;;;9.28;5.03;;;;;;;6.83;57.98;101094.98;1793146;78;21219;-70
2022/12/28 07:56:22;;;;;;;11.22;4.67;;;;;;;6.85;57.93;101108.34;1822715;78;21030;-70
2022/12/28 07:58:54;;;;;;;9.63;4.28;;;;;;;6.89;57.84;101116.68;1804244;78;21093;-70
2022/12/28 08:01:22;;;;;;;9.88;4.72;;;;;;;6.95;57.79;101109.17;1815596;78;21066;-70
2022/12/28 08:03:56;;;;;;;8.80;4.70;;;;;;;7.04;57.65;101113.14;1822564;78;20936;-69
2022/12/28 08:06:24;;;;;;;8.03;4.20;;;;;;;7.04;57.28;101113.14;1822709;78;21530;-68
2022/12/28 08:08:55;;;;;;;8.20;4.50;;;;;;;7.07;57.39;101111.89;1822430;78;20984;-70
2022/12/28 08:11:24;;;;;;;8.45;4.20;;;;;;;7.04;57.13;101121.11;1815239;78;21058;-69
2022/12/28 08:13:53;;;;;;;8.28;4.47;;;;;;;6.94;57.06;101118.14;1822460;78;21006;-69
2022/12/28 08:16:22;;;;;;;9.60;4.35;;;;;;;6.87;57.10;101118.20;1796185;78;21061;-69
2022/12/28 08:18:48;;;;;;;7.25;4.22;;;;;;;6.83;57.15;101122.86;1792137;78;21871;-69
2022/12/28 08:21:18;;;;;;;8.13;4.33;;;;;;;6.76;57.25;101125.56;1817576;78;20979;-69
2022/12/28 08:23:45;;;;;;;7.80;4.15;;;;;;;6.70;57.24;101139.19;1822634;78;20984;-69
2022/12/28 08:26:16;;;;;;;7.67;4.30;;;;;;;6.71;57.08;101127.56;1822644;78;21454;-68
2022/12/28 08:28:44;;;;;;;7.72;4.20;;;;;;;6.71;56.98;101136.02;1814661;78;21151;-70
2022/12/28 08:31:15;;;;;;;8.43;4.42;;;;;;;6.72;56.97;101132.34;1790359;79;21797;-70
2022/12/28 08:33:42;;;;;;;7.85;4.17;;;;;;;6.74;56.85;101146.20;1791144;78;21514;-70
2022/12/28 08:36:09;;;;;;;7.75;4.30;;;;;;;6.75;56.66;101127.42;1790327;80;21521;-69
2022/12/28 08:38:38;;;;;;;10.23;4.67;;;;;;;6.76;56.68;101123.72;1798406;78;20991;-70
2022/12/28 08:41:08;;;;;;;12.00;4.30;;;;;;;6.78;56.72;101126.98;1790225;79;21501;-69
2022/12/28 08:43:37;;;;;;;8.90;4.35;;;;;;;6.79;56.47;101131.25;1790477;79;21265;-69
2022/12/28 08:46:19;;;;;;;8.10;4.25;;;;;;;6.80;55.82;101133.39;1763804;78;21008;-69
2022/12/28 08:48:48;;;;;;;8.80;4.40;;;;;;;6.77;55.91;101163.03;1815200;78;20999;-69
2022/12/28 08:51:40;;;;;;;9.43;4.00;;;;;;;6.77;55.92;101149.23;1790329;80;21007;-69
2022/12/28 08:54:09;;;;;;;9.85;4.10;;;;;;;6.80;55.73;101140.03;1813248;77;20994;-70
2022/12/28 08:56:37;;;;;;;9.88;4.00;;;;;;;6.85;55.75;101150.82;1808303;78;21205;-68
2022/12/28 08:59:05;;;;;;;11.25;4.17;;;;;;;6.87;55.14;101142.63;1790343;78;21003;-68
2022/12/28 09:01:34;;;;;;;6.35;3.80;;;;;;;6.85;55.12;101153.48;1790300;80;21093;-68
2022/12/28 09:04:01;;;;;;;9.33;4.30;;;;;;;6.85;55.07;101140.20;1790111;78;21392;-69
2022/12/28 09:06:32;;;;;;;9.45;3.98;;;;;;;6.84;54.97;101151.02;1799489;78;21639;-70
2022/12/28 09:08:59;;;;;;;12.53;4.97;;;;;;;6.83;55.03;101141.44;1790136;80;21142;-69
2022/12/28 09:11:26;;;;;;;10.08;4.47;;;;;;;6.87;55.25;101145.28;1790105;78;21567;-69
2022/12/28 09:13:53;;;;;;;8.50;3.72;;;;;;;6.91;54.86;101153.10;1796860;78;21062;-69
2022/12/28 09:16:22;;;;;;;8.13;4.40;;;;;;;6.95;54.64;101146.34;1804878;78;20948;-71
2022/12/28 09:18:59;;;;;;;8.80;4.25;;;;;;;6.98;54.55;101149.37;1822447;78;21181;-69
2022/12/28 09:21:29;;;;;;;6.85;3.47;;;;;;;7.04;54.67;101138.37;1794070;78;21158;-69
2022/12/28 09:23:55;;;;;;;8.73;4.08;;;;;;;7.10;54.58;101143.34;1790980;78;21057;-69
2022/12/28 09:26:25;;;;;;;10.53;4.45;;;;;;;7.06;53.89;101157.57;1790514;80;21580;-71
2022/12/28 09:28:56;;;;;;;8.03;3.90;;;;;;;7.02;53.85;101149.75;1789996;80;21486;-70
2022/12/28 09:31:25;;;;;;;9.00;3.70;;;;;;;7.04;53.82;101150.33;1790532;80;21050;-68
2022/12/28 09:34:01;;;;;;;8.50;3.75;;;;;;;7.08;53.80;101147.55;1790361;80;21727;-68
2022/12/28 09:36:34;;;;;;;9.05;3.75;;;;;;;7.14;53.72;101144.52;1790042;80;21113;-70
2022/12/28 09:39:04;;;;;;;;;;;;;;;7.21;53.44;101154.06;1793105;80;21058;-68
2022/12/28 09:41:52;;;;;;;8.18;3.55;;;;;;;7.23;53.11;101150.66;1819209;78;20185;-69
2022/12/28 09:44:41;;;;;;;10.18;4.00;;;;;;;7.20;53.13;101156.92;1822835;78;21423;-68
2022/12/28 09:47:34;;;;;;;8.95;3.80;;;;;;;7.22;52.85;101150.36;1822302;78;21209;-69
2022/12/28 09:50:17;;;;;;;8.33;3.42;;;;;;;7.26;52.81;101150.21;1822410;78;21038;-70
2022/12/28 09:53:14;;;;;;;9.50;3.45;;;;;;;7.24;52.32;101155.47;1822786;78;20999;-71
2022/12/28 09:56:02;;;;;;;11.25;4.00;;;;;;;7.22;52.38;101166.30;1822610;78;21314;-69
2022/12/28 09:58:31;;;;;;;10.35;3.55;;;;;;;7.23;52.37;101161.80;1807930;78;21034;-69
2022/12/28 11:12:24;;;;;;;5.73;2.37;;;;;;;7.69;47.29;101182.56;1833908;77;22262;-69
2022/12/28 11:14:52;;;;;;;6.30;2.30;;;;;;;7.67;46.79;101181.99;1793097;78;20960;-70
2022/12/28 11:17:22;;;;;;;6.47;2.30;;;;;;;7.73;46.81;101179.77;1769141;79;21469;-70
2022/12/28 11:19:55;;;;;;;6.33;2.10;;;;;;;7.77;46.03;101172.69;1772449;78;21109;-71
2022/12/28 11:22:25;;;;;;;6.67;2.30;;;;;;;7.73;45.75;101178.45;1768003;81;21000;-70
2022/12/28 11:24:52;;;;;;;9.00;2.62;;;;;;;7.57;45.76;101184.36;1767966;80;21121;-68
2022/12/28 11:27:21;;;;;;;6.15;2.22;;;;;;;7.49;46.19;101211.22;1768251;79;21002;-69
2022/12/28 11:29:50;;;;;;;7.58;2.25;;;;;;;7.39;46.19;101197.62;1773556;79;21217;-69
2022/12/28 11:32:38;;;;;;;10.38;2.98;;;;;;;7.34;46.19;101188.99;1789498;79;21512;-69
2022/12/28 11:35:07;;;;;;;8.23;2.33;;;;;;;7.29;46.53;101212.22;1775259;79;21494;-69
2022/12/28 11:37:34;;;;;;;6.35;2.20;;;;;;;7.20;46.46;101193.59;1756954;80;20964;-69
2022/12/28 11:40:00;;;;;;;9.00;2.80;;;;;;;7.12;45.93;101186.44;1767954;81;20994;-69
2022/12/28 11:42:41;;;;;;;9.93;3.10;;;;;;;7.15;46.32;101200.09;1776406;80;21630;-69
2022/12/28 11:45:14;;;;;;;8.45;2.95;;;;;;;7.13;46.55;101200.82;1767988;81;21027;-70
2022/12/28 11:47:41;;;;;;;6.10;1.80;;;;;;;7.12;46.57;101215.14;1774385;79;20987;-71
2022/12/28 11:50:35;;;;;;;6.95;2.15;;;;;;;7.04;46.41;101205.61;1751023;81;21026;-69
2022/12/28 11:53:04;;;;;;;7.15;2.27;;;;;;;7.00;46.48;101204.92;1757673;80;21007;-69
2022/12/28 11:55:43;;;;;;;4.90;1.90;;;;;;;7.04;47.00;101212.25;1775284;79;21829;-69
2022/12/28 11:58:35;;;;;;;7.60;2.40;;;;;;;6.98;46.91;101201.69;1768084;80;20987;-69
2022/12/28 12:01:01;;;;;;;6.90;2.72;;;;;;;7.02;47.29;101205.53;1767647;78;21477;-71
2022/12/28 12:04:00;;;;;;;7.85;2.52;;;;;;;7.03;47.35;101220.42;1768205;81;21485;-70
2022/12/28 12:06:47;;;;;;;7.80;2.60;;;;;;;7.02;47.62;101216.16;1760796;80;20996;-70
2022/12/28 12:09:31;;;;;;;7.12;2.70;;;;;;;7.07;47.32;101212.83;1793604;79;21320;-69
2022/12/28 12:12:04;;;;;;;7.03;2.50;;;;;;;7.06;47.61;101218.66;1785807;79;20978;-71
2022/12/28 12:14:35;;;;;;;6.05;2.40;;;;;;;7.14;47.88;101230.36;1762287;79;21485;-69
2022/12/28 12:17:06;;;;;;;6.67;2.60;;;;;;;7.19;48.26;101226.52;1767947;80;21021;-69
2022/12/28 14:10:53;;;;;;;8.60;3.30;;;;;;;6.39;54.96;101306.41;1749405;80;22108;-68
2022/12/28 14:13:21;;;;;;;6.45;3.12;;;;;;;6.40;54.27;101301.39;1757459;81;20873;-69
2022/12/28 14:15:48;;;;;;;7.12;3.17;;;;;;;6.41;54.07;101299.03;1756337;81;21809;-68
2022/12/28 14:18:16;;;;;;;7.83;3.47;;;;;;;6.42;53.82;101293.52;1740170;81;21111;-69
2022/12/28 14:20:50;;;;;;;5.72;3.15;;;;;;;6.43;53.67;101303.10;1719772;83;20898;-69
2022/12/28 14:23:31;;;;;;;7.17;3.52;;;;;;;6.40;53.58;101298.73;1721850;83;20929;-69
2022/12/28 14:26:02;;;;;;;6.05;3.12;;;;;;;6.37;53.49;101305.27;1750200;82;21060;-69
2022/12/28 14:28:35;;;;;;;8.25;3.37;;;;;;;6.32;53.51;101314.39;1723811;82;21468;-69
2022/12/28 14:31:07;;;;;;;8.85;4.03;;;;;;;6.27;53.56;101311.02;1749737;82;20913;-69
2022/12/28 14:33:37;;;;;;;7.58;4.00;;;;;;;6.21;53.73;101313.18;1726510;82;20994;-69
2022/12/28 14:36:06;;;;;;;8.18;4.05;;;;;;;6.17;53.79;101308.52;1725998;83;21578;-69
2022/12/28 14:38:38;;;;;;;7.95;3.70;;;;;;;6.14;53.91;101309.73;1722020;82;21472;-69
2022/12/28 14:41:05;;;;;;;9.10;4.03;;;;;;;6.13;54.02;101304.66;1749802;82;21396;-67
2022/12/28 14:43:35;;;;;;;7.90;4.03;;;;;;;6.09;54.13;101297.63;1695206;83;21467;-68
2022/12/28 14:46:32;;;;;;;11.03;4.40;;;;;;;6.06;54.24;101295.39;1741764;82;21060;-69
2022/12/28 14:49:20;;;;;;;7.33;3.75;;;;;;;6.02;54.38;101306.09;1755554;81;21119;-69
2022/12/28 14:51:47;;;;;;;9.13;3.75;;;;;;;5.96;54.67;101306.95;1727765;83;21102;-68
2022/12/28 14:54:26;;;;;;;9.75;4.60;;;;;;;5.88;54.91;101310.08;1714831;83;21217;-68
2022/12/28 14:57:01;;;;;;;8.28;3.87;;;;;;;5.84;55.06;101304.89;1698614;83;21573;-68
2022/12/28 14:59:37;;;;;;;9.43;5.10;;;;;;;5.75;55.31;101301.33;1742221;81;21028;-68
2022/12/28 15:02:05;;;;;;;8.08;4.47;;;;;;;5.65;55.61;101302.56;1689432;85;21057;-69
2022/12/28 15:04:40;;;;;;;9.18;5.10;;;;;;;5.64;55.84;101306.77;1709445;83;21043;-67
2022/12/28 15:07:10;;;;;;;9.78;5.90;;;;;;;5.60;56.04;101310.33;1705168;84;21125;-68
2022/12/28 15:09:37;;;;;;;8.83;4.83;;;;;;;5.59;56.19;101306.06;1706212;84;21102;-69
2022/12/28 15:12:13;;;;;;;9.38;5.45;;;;;;;5.60;56.39;101306.88;1705629;82;21030;-70
2022/12/28 15:14:40;;;;;;;11.43;5.30;;;;;;;5.59;56.52;101306.55;1705617;84;21002;-69
2022/12/28 15:17:08;;;;;;;9.33;5.20;;;;;;;5.60;56.62;101315.63;1706042;84;20974;-70
2022/12/28 15:19:35;;;;;;;10.18;5.50;;;;;;;5.58;56.79;101310.23;1705614;84;21187;-69
2022/12/28 15:22:01;;;;;;;10.28;5.03;;;;;;;5.57;56.94;101312.58;1705594;84;21531;-69
2022/12/28 15:24:29;;;;;;;13.25;7.08;;;;;;;5.59;57.10;101310.04;1691429;84;21059;-69
2022/12/28 15:26:55;;;;;;;11.10;6.10;;;;;;;5.60;57.20;101308.20;1677680;85;21125;-68
2022/12/28 15:29:24;;;;;;;12.07;6.90;;;;;;;5.60;57.27;101310.33;1677340;85;21082;-69
2022/12/28 15:31:50;;;;;;;11.35;5.75;;;;;;;5.63;57.34;101306.47;1696805;84;21117;-69
2022/12/28 15:34:18;;;;;;;12.07;6.55;;;;;;;5.64;57.37;101316.03;1704115;84;21025;-68
2022/12/28 15:36:45;;;;;;;9.30;5.47;;;;;;;5.65;57.39;101318.98;1704502;84;21595;-69